createdAt,value
2019-03-09T00:01:14.271Z,77.21
2019-03-09T00:03:42.877Z,76.91
2019-03-09T00:06:13.522Z,76.79
2019-03-09T00:08:41.795Z,76.78
2019-03-09T00:11:10.672Z,77.04
2019-03-09T00:13:42.284Z,77.00
2019-03-09T00:16:11.007Z,76.93
2019-03-09T00:18:39.561Z,77.12
2019-03-09T00:21:08.165Z,77.23
2019-03-09T00:23:50.652Z,77.09
2019-03-09T00:26:24.156Z,77.13
2019-03-09T00:28:57.169Z,77.59
2019-03-09T00:31:36.471Z,78.05
2019-03-09T00:34:05.100Z,78.10
2019-03-09T00:36:33.626Z,78.34
2019-03-09T00:39:02.221Z,78.60
2019-03-09T00:41:30.923Z,78.99
2019-03-09T00:43:59.448Z,78.90
2019-03-09T00:46:27.943Z,79.45
2019-03-09T00:48:56.394Z,79.65
2019-03-09T00:51:25.067Z,79.96
2019-03-09T00:53:53.662Z,80.69
2019-03-09T00:56:22.295Z,80.91
2019-03-09T00:58:50.883Z,81.43
2019-03-09T01:01:19.515Z,82.51
2019-03-09T01:03:48.223Z,83.19
2019-03-09T01:06:16.823Z,83.36
2019-03-09T01:08:45.407Z,83.86
2019-03-09T01:11:14.002Z,84.29
2019-03-09T01:13:42.477Z,85.09
2019-03-09T01:16:11.068Z,85.23
2019-03-09T01:18:39.601Z,85.59
2019-03-09T01:21:08.254Z,85.78
2019-03-09T01:23:36.844Z,86.00
2019-03-09T01:26:05.432Z,86.27
2019-03-09T01:28:34.116Z,86.85
2019-03-09T01:31:02.871Z,87.21
2019-03-09T01:33:31.388Z,87.15
2019-03-09T01:35:59.916Z,87.29
2019-03-09T01:38:28.597Z,87.48
2019-03-09T01:40:57.186Z,88.30
2019-03-09T01:43:25.701Z,87.84
2019-03-09T01:45:54.396Z,87.93
2019-03-09T01:48:22.998Z,88.18
2019-03-09T01:50:51.591Z,88.42
2019-03-09T01:53:20.110Z,88.50
2019-03-09T01:55:48.627Z,88.21
2019-03-09T01:58:17.220Z,88.64
2019-03-09T02:00:45.947Z,88.84
2019-03-09T02:03:14.469Z,89.16
2019-03-09T02:05:43.063Z,89.70
2019-03-09T02:08:11.598Z,89.92
2019-03-09T02:10:40.190Z,90.43
2019-03-09T02:13:08.669Z,90.91
2019-03-09T02:15:37.240Z,91.04
2019-03-09T02:18:05.839Z,91.31
2019-03-09T02:20:34.548Z,91.51
2019-03-09T02:23:03.106Z,92.04
2019-03-09T02:25:31.623Z,92.17
2019-03-09T02:28:00.187Z,92.66
2019-03-09T02:30:28.882Z,93.40
2019-03-09T02:32:57.546Z,93.77
2019-03-09T02:35:26.128Z,94.34
2019-03-09T02:37:54.780Z,94.94
2019-03-09T02:40:24.929Z,94.94
2019-03-09T02:42:53.550Z,95.57
2019-03-09T02:45:24.765Z,95.50
2019-03-09T02:47:53.357Z,96.04
2019-03-09T02:50:21.901Z,96.13
2019-03-09T02:52:50.488Z,96.47
2019-03-09T02:55:19.120Z,96.49
2019-03-09T02:57:47.699Z,96.62
2019-03-09T03:00:22.118Z,96.74
2019-03-09T03:02:52.357Z,96.98
2019-03-09T03:05:20.974Z,96.92
2019-03-09T03:07:49.568Z,97.35
2019-03-09T03:10:18.205Z,96.95
2019-03-09T03:12:46.749Z,97.10
2019-03-09T03:15:35.473Z,97.29
2019-03-09T03:18:04.270Z,97.25
2019-03-09T03:20:32.937Z,97.01
2019-03-09T03:23:01.558Z,97.38
2019-03-09T03:25:30.182Z,97.43
2019-03-09T03:27:58.772Z,97.44
2019-03-09T03:30:27.402Z,97.42
2019-03-09T03:32:57.499Z,97.45
2019-03-09T03:35:26.232Z,97.44
2019-03-09T03:37:54.836Z,97.63
2019-03-09T03:40:23.462Z,97.72
2019-03-09T03:42:52.043Z,97.76
2019-03-09T03:45:20.775Z,97.70
2019-03-09T03:47:49.369Z,97.70
2019-03-09T03:50:18.006Z,97.91
2019-03-09T03:52:46.530Z,98.04
2019-03-09T03:55:15.147Z,98.14
2019-03-09T03:57:43.670Z,98.05
2019-03-09T04:00:16.079Z,98.31
2019-03-09T04:02:44.673Z,98.44
2019-03-09T04:05:13.435Z,98.56
2019-03-09T04:07:42.430Z,98.67
2019-03-09T04:10:15.193Z,98.66
2019-03-09T04:12:43.737Z,98.72
2019-03-09T04:15:13.158Z,98.87
2019-03-09T04:17:41.780Z,99.15
2019-03-09T04:20:13.527Z,99.08
2019-03-09T04:22:42.124Z,99.01
2019-03-09T04:25:11.673Z,98.95
2019-03-09T04:27:40.274Z,99.05
2019-03-09T04:30:14.870Z,99.00
2019-03-09T04:32:43.455Z,99.14
2019-03-09T04:35:12.042Z,99.10
2019-03-09T04:37:40.671Z,99.16
2019-03-09T04:40:14.428Z,99.16
2019-03-09T04:42:42.984Z,99.02
2019-03-09T04:45:12.787Z,98.67
2019-03-09T04:47:41.378Z,98.09
2019-03-09T04:50:15.959Z,98.11
2019-03-09T04:52:44.563Z,98.17
2019-03-09T04:55:13.146Z,97.96
2019-03-09T04:57:41.733Z,97.76
2019-03-09T05:00:14.956Z,97.81
2019-03-09T05:02:43.779Z,97.73
2019-03-09T05:05:12.898Z,97.65
2019-03-09T05:07:44.261Z,97.49
2019-03-09T05:10:30.610Z,97.45
2019-03-09T05:13:02.237Z,97.15
2019-03-09T05:15:30.759Z,96.94
2019-03-09T05:17:59.341Z,96.90
2019-03-09T05:20:27.882Z,96.70
2019-03-09T05:22:56.410Z,96.83
2019-03-09T05:25:25.007Z,96.44
2019-03-09T05:27:53.612Z,96.37
2019-03-09T05:30:38.466Z,96.13
2019-03-09T05:33:07.085Z,95.91
2019-03-09T05:35:35.608Z,95.88
2019-03-09T05:38:04.602Z,95.82
2019-03-09T05:40:33.162Z,95.90
2019-03-09T05:43:01.759Z,95.76
2019-03-09T05:45:30.373Z,95.58
2019-03-09T05:47:58.946Z,95.51
2019-03-09T05:50:27.560Z,95.72
2019-03-09T05:53:13.851Z,95.76
2019-03-09T05:55:42.470Z,95.62
2019-03-09T05:58:11.069Z,95.58
2019-03-09T06:00:40.660Z,95.43
2019-03-09T06:03:09.350Z,95.23
2019-03-09T06:05:42.754Z,95.25
2019-03-09T06:08:11.385Z,95.27
2019-03-09T06:10:39.982Z,95.35
2019-03-09T06:13:08.617Z,95.39
2019-03-09T06:15:37.168Z,95.67
2019-03-09T06:18:06.503Z,96.02
2019-03-09T06:20:35.380Z,96.36
2019-03-09T06:23:04.059Z,96.39
2019-03-09T06:25:32.638Z,96.12
2019-03-09T06:28:01.304Z,96.15
2019-03-09T06:30:30.133Z,95.94
2019-03-09T06:33:24.641Z,95.84
2019-03-09T06:36:17.104Z,95.64
2019-03-09T06:38:51.324Z,95.46
2019-03-09T06:41:22.877Z,95.39
2019-03-09T06:43:51.405Z,95.43
2019-03-09T06:46:19.955Z,94.98
2019-03-09T06:48:48.516Z,94.70
2019-03-09T06:51:17.134Z,94.52
2019-03-09T06:53:45.659Z,93.84
2019-03-09T06:56:14.224Z,93.60
2019-03-09T06:58:42.855Z,92.78
2019-03-09T07:01:22.078Z,92.77
2019-03-09T07:03:50.608Z,92.69
2019-03-09T07:06:19.328Z,92.63
2019-03-09T07:08:48.075Z,92.16
2019-03-09T07:11:16.691Z,92.22
2019-03-09T07:13:52.355Z,91.93
2019-03-09T07:16:16.197Z,91.82
2019-03-09T07:18:44.853Z,91.27
2019-03-09T07:21:13.482Z,90.83
2019-03-09T07:23:42.079Z,90.33
2019-03-09T07:26:10.842Z,89.95
2019-03-09T07:28:39.439Z,88.94
2019-03-09T07:31:07.967Z,88.94
2019-03-09T07:33:36.752Z,89.52
2019-03-09T07:36:05.386Z,89.71
2019-03-09T07:38:34.028Z,89.82
2019-03-09T07:41:02.555Z,89.94
2019-03-09T07:43:31.080Z,89.97
2019-03-09T07:45:59.611Z,90.09
2019-03-09T07:48:28.436Z,89.84
2019-03-09T07:50:57.057Z,90.18
2019-03-09T07:53:25.657Z,90.06
2019-03-09T07:55:54.356Z,89.72
2019-03-09T07:58:22.930Z,89.82
2019-03-09T08:00:51.594Z,89.52
2019-03-09T08:03:20.127Z,89.59
2019-03-09T08:05:48.751Z,89.54
2019-03-09T08:08:17.353Z,89.43
2019-03-09T08:10:45.957Z,89.33
2019-03-09T08:13:14.858Z,89.59
2019-03-09T08:15:43.494Z,89.27
2019-03-09T08:18:12.120Z,88.94
2019-03-09T08:20:40.790Z,89.09
2019-03-09T08:23:09.240Z,89.08
2019-03-09T08:25:37.786Z,88.90
2019-03-09T08:28:06.423Z,88.63
2019-03-09T08:30:35.090Z,88.49
2019-03-09T08:33:03.692Z,88.24
2019-03-09T08:35:32.272Z,87.92
2019-03-09T08:38:00.839Z,87.46
2019-03-09T08:40:29.458Z,87.16
2019-03-09T08:42:58.055Z,86.83
2019-03-09T08:45:26.724Z,86.72
2019-03-09T08:47:55.255Z,86.65
2019-03-09T08:50:23.963Z,86.77
2019-03-09T08:52:52.764Z,86.91
2019-03-09T08:55:21.565Z,86.42
2019-03-09T08:57:50.137Z,86.66
2019-03-09T09:00:21.410Z,86.66
2019-03-09T09:02:50.011Z,86.73
2019-03-09T09:05:18.649Z,86.87
2019-03-09T09:07:47.191Z,87.00
2019-03-09T09:10:15.793Z,86.90
2019-03-09T09:12:45.735Z,86.75
2019-03-09T09:15:16.351Z,86.54
2019-03-09T09:17:45.150Z,86.44
2019-03-09T09:20:16.428Z,86.30
2019-03-09T09:22:45.108Z,86.42
2019-03-09T09:25:14.145Z,86.57
2019-03-09T09:27:42.969Z,86.43
2019-03-09T09:30:17.184Z,86.25
2019-03-09T09:32:45.915Z,85.99
2019-03-09T09:35:15.488Z,85.78
2019-03-09T09:37:44.181Z,85.30
2019-03-09T09:40:21.741Z,85.23
2019-03-09T09:42:50.642Z,85.24
2019-03-09T09:45:19.533Z,84.99
2019-03-09T09:47:48.141Z,84.91
2019-03-09T09:50:17.388Z,84.24
2019-03-09T09:52:45.973Z,84.61
2019-03-09T09:55:18.628Z,84.08
2019-03-09T09:57:47.162Z,83.47
2019-03-09T10:00:17.899Z,83.24
2019-03-09T10:02:46.583Z,83.29
2019-03-09T10:05:15.287Z,82.66
2019-03-09T10:07:43.917Z,82.51
2019-03-09T10:10:19.699Z,82.45
2019-03-09T10:12:48.304Z,81.54
2019-03-09T10:15:31.371Z,81.96
2019-03-09T10:17:59.907Z,81.24
2019-03-09T10:20:28.644Z,81.02
2019-03-09T10:23:04.306Z,80.89
2019-03-09T10:25:27.923Z,80.55
2019-03-09T10:27:56.801Z,80.03
2019-03-09T10:30:25.816Z,79.46
2019-03-09T10:32:54.412Z,79.22
2019-03-09T10:35:23.052Z,78.95
2019-03-09T10:37:51.749Z,79.21
2019-03-09T10:40:20.430Z,78.75
2019-03-09T10:42:49.055Z,78.21
2019-03-09T10:45:18.889Z,78.06
2019-03-09T10:47:47.689Z,78.16
2019-03-09T10:50:17.120Z,77.94
2019-03-09T10:52:46.010Z,78.02
2019-03-09T10:55:19.766Z,77.73
2019-03-09T10:57:48.372Z,77.47
2019-03-09T11:00:19.588Z,76.56
2019-03-09T11:02:48.288Z,76.87
2019-03-09T11:05:17.013Z,76.80
2019-03-09T11:07:45.802Z,77.09
2019-03-09T11:10:14.822Z,77.35
2019-03-09T11:12:43.849Z,77.21
2019-03-09T11:15:12.871Z,77.15
2019-03-09T11:21:22.117Z,76.93
2019-03-09T11:23:50.718Z,76.50
2019-03-09T11:26:19.597Z,76.61
2019-03-09T11:28:48.120Z,76.49
2019-03-09T11:31:16.786Z,76.61
2019-03-09T11:33:45.315Z,75.83
2019-03-09T11:36:13.852Z,75.03
2019-03-09T11:38:42.389Z,75.14
2019-03-09T11:41:18.790Z,74.69
2019-03-09T11:43:41.317Z,74.39
2019-03-09T11:46:09.979Z,74.64
2019-03-09T11:52:36.196Z,73.35
2019-03-09T11:55:06.841Z,73.51
2019-03-09T11:57:35.609Z,72.96
2019-03-09T12:00:17.511Z,73.00
2019-03-09T12:02:46.184Z,72.38
2019-03-09T12:05:14.803Z,71.83
2019-03-09T12:07:43.430Z,71.36
2019-03-09T12:10:12.961Z,70.79
2019-03-09T12:12:41.655Z,71.17
2019-03-09T12:15:12.665Z,70.08
2019-03-09T12:17:41.266Z,70.27
2019-03-09T12:20:11.956Z,70.66
2019-03-09T12:22:40.646Z,70.81
2019-03-09T12:25:11.284Z,70.98
2019-03-09T12:27:39.928Z,70.84
2019-03-09T12:30:11.389Z,70.62
2019-03-09T12:32:39.987Z,70.00
2019-03-09T12:35:09.317Z,68.98
2019-03-09T12:37:38.108Z,68.85
2019-03-09T12:40:15.401Z,68.71
2019-03-09T12:42:43.997Z,68.17
2019-03-09T12:45:12.900Z,68.02
2019-03-09T12:47:41.517Z,68.63
2019-03-09T12:50:15.796Z,68.19
2019-03-09T12:52:44.397Z,67.54
2019-03-09T12:55:13.615Z,66.84
2019-03-09T12:57:42.247Z,67.10
2019-03-09T13:00:14.157Z,66.45
2019-03-09T13:02:42.804Z,64.65
2019-03-09T13:05:11.429Z,64.19
2019-03-09T13:07:39.957Z,63.49
2019-03-09T13:10:09.572Z,62.93
2019-03-09T13:12:38.240Z,63.08
2019-03-09T13:15:08.369Z,62.95
2019-03-09T13:17:37.073Z,63.16
2019-03-09T13:20:08.766Z,62.13
2019-03-09T13:22:37.416Z,62.93
2019-03-09T13:25:07.469Z,62.67
2019-03-09T13:27:36.072Z,63.45
2019-03-09T13:30:07.308Z,63.60
2019-03-09T13:32:35.938Z,64.03
2019-03-09T13:35:04.740Z,63.83
2019-03-09T13:37:33.339Z,64.20
2019-03-09T13:40:02.016Z,64.25
2019-03-09T13:42:30.542Z,65.14
2019-03-09T13:44:59.073Z,67.40
2019-03-09T13:47:27.832Z,72.04
2019-03-09T13:49:56.467Z,76.33
2019-03-09T13:52:25.027Z,79.48
2019-03-09T13:54:53.622Z,83.40
2019-03-09T13:57:22.223Z,84.41
2019-03-09T13:59:50.859Z,84.95
2019-03-09T14:02:19.557Z,85.31
2019-03-09T14:04:48.265Z,85.43
2019-03-09T14:07:16.845Z,85.29
2019-03-09T14:09:45.394Z,84.66
2019-03-09T14:12:13.885Z,83.44
2019-03-09T14:14:42.411Z,83.74
2019-03-09T14:17:11.039Z,82.46
2019-03-09T14:19:39.637Z,82.95
2019-03-09T14:22:08.395Z,83.44
2019-03-09T14:24:36.920Z,83.13
2019-03-09T14:27:05.567Z,83.73
2019-03-09T14:29:34.166Z,83.74
2019-03-09T14:32:02.800Z,83.25
2019-03-09T14:34:31.415Z,83.80
2019-03-09T14:37:00.097Z,83.28
2019-03-09T14:39:28.680Z,82.98
2019-03-09T14:41:57.214Z,82.81
2019-03-09T14:44:25.745Z,81.89
2019-03-09T14:46:54.441Z,82.25
2019-03-09T14:49:23.259Z,81.51
2019-03-09T14:51:51.811Z,80.49
2019-03-09T14:54:20.408Z,80.59
2019-03-09T14:56:48.999Z,80.89
2019-03-09T14:59:17.525Z,81.75
2019-03-09T15:01:46.195Z,81.58
2019-03-09T15:04:14.895Z,81.64
2019-03-09T15:06:43.514Z,80.83
2019-03-09T15:09:12.129Z,80.72
2019-03-09T15:11:40.767Z,81.28
2019-03-09T15:14:09.384Z,81.96
2019-03-09T15:16:37.979Z,83.34
2019-03-09T15:19:06.620Z,84.13
2019-03-09T15:21:35.360Z,84.41
2019-03-09T15:24:03.953Z,84.96
2019-03-09T15:26:32.559Z,85.79
2019-03-09T15:29:01.159Z,86.35
2019-03-09T15:31:29.818Z,87.23
2019-03-09T15:33:58.375Z,88.21
2019-03-09T15:36:26.958Z,80.01
2019-03-09T15:38:55.689Z,80.91
2019-03-09T15:41:24.411Z,84.14
2019-03-09T15:43:53.030Z,86.92
2019-03-09T15:46:21.560Z,89.43
2019-03-09T15:48:50.264Z,91.07
2019-03-09T15:51:19.224Z,92.30
2019-03-09T15:53:48.056Z,92.24
2019-03-09T15:56:16.941Z,92.92
2019-03-09T15:58:45.549Z,93.34
2019-03-09T16:01:14.529Z,93.52
2019-03-09T16:03:43.148Z,94.07
2019-03-09T16:06:11.739Z,95.30
2019-03-09T16:08:40.332Z,95.55
2019-03-09T16:11:09.040Z,95.93
2019-03-09T16:13:37.646Z,95.08
2019-03-09T16:16:06.234Z,95.31
2019-03-09T16:18:34.853Z,94.51
2019-03-09T16:21:03.442Z,94.60
2019-03-09T16:23:32.138Z,94.18
2019-03-09T16:26:00.765Z,94.08
2019-03-09T16:28:29.441Z,92.87
2019-03-09T16:30:58.043Z,92.24
2019-03-09T16:33:26.563Z,91.29
2019-03-09T16:35:55.354Z,90.57
2019-03-09T16:38:23.951Z,90.33
2019-03-09T16:40:52.543Z,90.27
2019-03-09T16:43:21.137Z,90.01
2019-03-09T16:45:49.750Z,89.61
2019-03-09T16:48:18.339Z,89.38
2019-03-09T16:50:47.017Z,89.03
2019-03-09T16:53:15.541Z,89.08
2019-03-09T16:55:44.133Z,89.48
2019-03-09T16:58:12.755Z,88.94
2019-03-09T17:00:41.348Z,88.82
2019-03-09T17:03:09.934Z,88.85
2019-03-09T17:05:38.555Z,88.99
2019-03-09T17:08:07.140Z,89.08
2019-03-09T17:10:35.754Z,88.66
2019-03-09T17:13:04.351Z,88.68
2019-03-09T17:15:32.945Z,88.77
2019-03-09T17:18:01.568Z,89.04
2019-03-09T17:20:30.107Z,89.18
2019-03-09T17:22:58.694Z,88.68
2019-03-09T17:25:27.244Z,88.50
2019-03-09T17:27:56.023Z,88.65
2019-03-09T17:30:24.724Z,88.70
2019-03-09T17:32:53.324Z,88.41
2019-03-09T17:35:21.924Z,88.76
2019-03-09T17:37:50.632Z,88.55
2019-03-09T17:40:19.330Z,88.72
2019-03-09T17:42:47.938Z,88.48
2019-03-09T17:45:24.438Z,88.48
2019-03-09T17:47:53.053Z,88.21
2019-03-09T17:50:21.649Z,87.86
2019-03-09T17:52:50.242Z,88.16
2019-03-09T17:55:18.865Z,87.78
2019-03-09T17:57:47.464Z,87.54
2019-03-09T18:00:23.176Z,87.71
2019-03-09T18:02:51.768Z,87.63
2019-03-09T18:05:20.464Z,87.23
2019-03-09T18:07:49.270Z,86.34
2019-03-09T18:10:25.117Z,86.27
2019-03-09T18:12:53.682Z,86.25
2019-03-09T18:15:22.290Z,86.22
2019-03-09T18:17:50.948Z,86.16
2019-03-09T18:20:19.553Z,85.79
2019-03-09T18:22:48.292Z,86.22
2019-03-09T18:25:16.941Z,86.42
2019-03-09T18:27:45.593Z,85.82
2019-03-09T18:30:14.295Z,86.27
2019-03-09T18:32:42.827Z,85.70
2019-03-09T18:35:12.034Z,85.32
2019-03-09T18:37:40.660Z,84.82
2019-03-09T18:40:12.205Z,84.65
2019-03-09T18:42:40.763Z,85.05
2019-03-09T18:45:22.929Z,84.99
2019-03-09T18:47:51.585Z,84.22
2019-03-09T18:50:20.260Z,83.80
2019-03-09T18:52:49.105Z,83.90
2019-03-09T18:55:17.809Z,83.64
2019-03-09T18:57:46.424Z,83.37
2019-03-09T19:00:19.951Z,82.51
2019-03-09T19:02:48.647Z,82.59
2019-03-09T19:05:17.264Z,83.02
2019-03-09T19:07:45.931Z,82.92
2019-03-09T19:10:24.919Z,82.58
2019-03-09T19:12:53.629Z,82.30
2019-03-09T19:15:22.281Z,82.85
2019-03-09T19:17:51.127Z,82.75
2019-03-09T19:20:20.741Z,82.29
2019-03-09T19:22:49.320Z,82.31
2019-03-09T19:25:18.435Z,82.37
2019-03-09T19:27:47.029Z,82.54
2019-03-09T19:30:20.525Z,82.59
2019-03-09T19:32:59.583Z,82.81
2019-03-09T19:35:19.627Z,82.68
2019-03-09T19:37:48.493Z,82.78
2019-03-09T19:40:18.605Z,82.55
2019-03-09T19:42:47.343Z,82.25
2019-03-09T19:45:22.483Z,82.05
2019-03-09T19:47:51.088Z,81.89
2019-03-09T19:50:21.805Z,81.60
2019-03-09T19:52:50.405Z,81.58
2019-03-09T19:55:19.025Z,81.86
2019-03-09T19:57:47.644Z,81.55
2019-03-09T20:00:21.315Z,81.62
2019-03-09T20:02:50.000Z,81.64
2019-03-09T20:05:18.798Z,81.72
2019-03-09T20:07:47.525Z,81.63
2019-03-09T20:10:23.388Z,81.71
2019-03-09T20:12:51.979Z,81.60
2019-03-09T20:15:21.106Z,81.50
2019-03-09T20:17:49.705Z,81.54
2019-03-09T20:20:18.831Z,81.58
2019-03-09T20:22:47.433Z,81.90
2019-03-09T20:25:16.059Z,81.72
2019-03-09T20:27:44.672Z,81.72
2019-03-09T20:30:21.324Z,82.18
2019-03-09T20:32:50.391Z,82.04
2019-03-09T20:35:18.995Z,82.01
2019-03-09T20:37:47.605Z,82.19
2019-03-09T20:40:17.398Z,82.07
2019-03-09T20:42:46.217Z,82.34
2019-03-09T20:45:19.501Z,82.70
2019-03-09T20:47:48.027Z,82.92
2019-03-09T20:50:17.903Z,83.06
2019-03-09T20:52:46.510Z,83.18
2019-03-09T20:55:15.309Z,83.56
2019-03-09T20:57:43.908Z,83.49
2019-03-09T21:00:15.443Z,83.48
2019-03-09T21:02:44.044Z,83.26
2019-03-09T21:05:12.999Z,82.79
2019-03-09T21:07:41.690Z,82.40
2019-03-09T21:10:13.180Z,82.25
2019-03-09T21:13:02.341Z,81.69
2019-03-09T21:15:30.954Z,81.53
2019-03-09T21:17:59.577Z,81.20
2019-03-09T21:20:28.226Z,80.79
2019-03-09T21:22:56.955Z,80.29
2019-03-09T21:25:25.558Z,80.26
2019-03-09T21:27:54.279Z,79.67
2019-03-09T21:30:22.905Z,79.25
2019-03-09T21:32:51.540Z,79.16
2019-03-09T21:35:20.189Z,79.20
2019-03-09T21:37:48.786Z,79.12
2019-03-09T21:40:17.464Z,78.85
2019-03-09T21:42:46.068Z,78.92
2019-03-09T21:45:15.264Z,78.81
2019-03-09T21:47:43.883Z,78.75
2019-03-09T21:50:13.923Z,78.63
2019-03-09T21:52:42.544Z,78.40
2019-03-09T21:55:13.812Z,78.23
2019-03-09T21:57:42.404Z,78.04
2019-03-09T22:00:14.222Z,77.22
2019-03-09T22:02:42.838Z,77.37
2019-03-09T22:05:12.565Z,77.33
2019-03-09T22:07:41.234Z,77.28
2019-03-09T22:10:11.243Z,77.22
2019-03-09T22:12:39.841Z,77.15
2019-03-09T22:15:16.150Z,76.77
2019-03-09T22:17:44.846Z,76.60
2019-03-09T22:20:14.870Z,76.40
2019-03-09T22:22:43.663Z,75.83
2019-03-09T22:25:16.146Z,75.32
2019-03-09T22:27:44.744Z,75.25
2019-03-09T22:30:23.211Z,75.11
2019-03-09T22:32:51.734Z,74.44
2019-03-09T22:35:20.331Z,74.26
2019-03-09T22:37:49.040Z,73.63
2019-03-09T22:40:18.747Z,73.38
2019-03-09T22:42:47.353Z,73.16
2019-03-09T22:45:16.313Z,72.97
2019-03-09T22:47:45.110Z,72.62
2019-03-09T22:50:18.855Z,72.72
2019-03-09T22:52:47.486Z,72.72
2019-03-09T22:55:16.187Z,72.81
2019-03-09T22:57:44.772Z,72.73
2019-03-09T23:00:24.355Z,72.84
2019-03-09T23:02:52.971Z,72.67
2019-03-09T23:05:21.589Z,72.57
2019-03-09T23:07:50.188Z,72.99
2019-03-09T23:10:20.385Z,72.98
2019-03-09T23:12:48.929Z,73.01
2019-03-09T23:15:18.237Z,73.14
2019-03-09T23:17:46.873Z,73.08
2019-03-09T23:20:16.377Z,73.17
2019-03-09T23:22:45.024Z,73.54
2019-03-09T23:25:15.170Z,73.54
2019-03-09T23:27:43.892Z,73.49
2019-03-09T23:30:17.656Z,73.01
2019-03-09T23:32:46.560Z,73.16
2019-03-09T23:35:15.662Z,72.82
2019-03-09T23:37:44.961Z,72.59
2019-03-09T23:40:23.580Z,72.22
2019-03-09T23:42:52.196Z,71.84
2019-03-09T23:45:24.938Z,71.74
2019-03-09T23:47:53.584Z,71.37
2019-03-09T23:50:22.483Z,71.35
2019-03-09T23:52:51.334Z,71.41
2019-03-09T23:55:22.426Z,71.03
2019-03-09T23:57:50.565Z,71.07
